createdAt,value
2023-05-19T00:01:21.630Z,54.10
2023-05-19T00:03:48.332Z,54.00
2023-05-19T00:06:15.077Z,54.00
2023-05-19T00:08:42.023Z,54.10
2023-05-19T00:11:08.736Z,54.00
2023-05-19T00:13:35.642Z,54.10
2023-05-19T00:16:02.422Z,55.20
2023-05-19T00:18:29.133Z,54.10
2023-05-19T00:20:55.830Z,54.10
2023-05-19T00:23:22.501Z,54.10
2023-05-19T00:25:49.188Z,54.10
2023-05-19T00:28:15.865Z,54.10
2023-05-19T00:30:42.552Z,54.10
2023-05-19T00:33:09.296Z,54.10
2023-05-19T00:35:36.037Z,54.10
2023-05-19T00:38:02.721Z,54.10
2023-05-19T00:40:29.541Z,54.00
2023-05-19T00:42:56.362Z,54.00
2023-05-19T00:45:23.049Z,54.10
2023-05-19T00:47:49.847Z,54.10
2023-05-19T00:50:16.643Z,53.90
2023-05-19T00:52:43.330Z,54.20
2023-05-19T00:55:10.031Z,54.10
2023-05-19T00:57:36.728Z,54.20
2023-05-19T01:00:03.399Z,54.10
2023-05-19T01:02:30.158Z,54.00
2023-05-19T01:04:56.879Z,54.10
2023-05-19T01:07:23.569Z,54.10
2023-05-19T01:09:50.252Z,54.00
2023-05-19T01:12:16.936Z,54.10
2023-05-19T01:14:43.619Z,54.10
2023-05-19T01:17:10.506Z,54.10
2023-05-19T01:19:37.192Z,54.10
2023-05-19T01:22:03.947Z,54.10
2023-05-19T01:24:30.843Z,54.20
2023-05-19T01:26:57.520Z,54.20
2023-05-19T01:29:24.223Z,54.10
2023-05-19T01:31:50.939Z,54.10
2023-05-19T01:34:17.670Z,54.00
2023-05-19T01:36:44.383Z,54.10
2023-05-19T01:39:11.081Z,54.10
2023-05-19T01:41:37.760Z,54.10
2023-05-19T01:44:04.440Z,54.10
2023-05-19T01:46:31.166Z,54.00
2023-05-19T01:48:57.915Z,54.00
2023-05-19T01:51:24.638Z,54.20
2023-05-19T01:53:51.380Z,54.10
2023-05-19T01:56:18.113Z,54.10
2023-05-19T01:58:44.813Z,54.10
2023-05-19T02:01:11.541Z,54.10
2023-05-19T02:03:38.301Z,54.20
2023-05-19T02:06:05.208Z,54.00
2023-05-19T02:08:31.907Z,54.20
2023-05-19T02:10:58.591Z,54.20
2023-05-19T02:13:25.268Z,54.00
2023-05-19T02:15:51.987Z,54.10
2023-05-19T02:18:18.689Z,54.10
2023-05-19T02:20:45.384Z,54.00
2023-05-19T02:23:12.319Z,53.90
2023-05-19T02:25:39.030Z,54.00
2023-05-19T02:28:05.967Z,53.90
2023-05-19T02:30:32.822Z,54.00
2023-05-19T02:32:59.810Z,54.00
2023-05-19T02:35:26.786Z,54.20
2023-05-19T02:37:53.489Z,54.10
2023-05-19T02:40:20.423Z,54.10
2023-05-19T02:42:47.132Z,54.10
2023-05-19T02:45:13.844Z,54.20
2023-05-19T02:47:40.769Z,55.10
2023-05-19T02:50:07.498Z,54.10
2023-05-19T02:52:34.420Z,54.10
2023-05-19T02:55:01.112Z,54.10
2023-05-19T02:57:27.804Z,53.90
2023-05-19T02:59:54.728Z,54.00
2023-05-19T03:02:21.613Z,55.00
2023-05-19T03:04:48.315Z,54.00
2023-05-19T03:07:15.015Z,54.10
2023-05-19T03:09:41.743Z,54.00
2023-05-19T03:12:08.666Z,54.10
2023-05-19T03:14:35.366Z,54.00
2023-05-19T03:17:02.151Z,54.00
2023-05-19T03:19:29.156Z,54.00
2023-05-19T03:21:55.926Z,54.10
2023-05-19T03:24:22.637Z,54.00
2023-05-19T03:26:49.331Z,54.10
2023-05-19T03:29:16.000Z,54.10
2023-05-19T03:31:42.691Z,54.10
2023-05-19T03:34:09.396Z,54.00
2023-05-19T03:36:36.119Z,54.00
2023-05-19T03:39:02.855Z,54.00
2023-05-19T03:41:29.559Z,53.90
2023-05-19T03:43:56.246Z,54.00
2023-05-19T03:46:22.980Z,54.10
2023-05-19T03:48:49.710Z,54.00
2023-05-19T03:51:16.473Z,54.00
2023-05-19T03:53:43.425Z,54.10
2023-05-19T03:56:10.110Z,54.00
2023-05-19T03:58:37.038Z,54.10
2023-05-19T04:01:03.746Z,54.00
2023-05-19T04:03:30.554Z,54.10
2023-05-19T04:05:57.299Z,54.00
2023-05-19T04:08:23.993Z,54.10
2023-05-19T04:10:50.706Z,54.00
2023-05-19T04:13:17.386Z,54.10
2023-05-19T04:15:44.126Z,53.90
2023-05-19T04:18:10.921Z,53.90
2023-05-19T04:20:37.856Z,53.90
2023-05-19T04:23:04.574Z,54.00
2023-05-19T04:25:31.246Z,53.90
2023-05-19T04:27:58.024Z,54.00
2023-05-19T04:30:25.139Z,54.00
2023-05-19T04:32:52.207Z,54.10
2023-05-19T04:35:18.967Z,53.90
2023-05-19T04:37:45.681Z,53.90
2023-05-19T04:40:12.432Z,53.90
2023-05-19T04:42:39.109Z,54.00
2023-05-19T04:45:05.817Z,54.00
2023-05-19T04:47:32.782Z,54.00
2023-05-19T04:49:59.692Z,53.90
2023-05-19T04:52:26.609Z,54.10
2023-05-19T04:54:53.313Z,54.00
2023-05-19T04:57:20.158Z,54.00
2023-05-19T04:59:47.065Z,54.00
2023-05-19T05:02:13.978Z,53.70
2023-05-19T05:04:40.738Z,53.70
2023-05-19T05:07:07.465Z,53.80
2023-05-19T05:09:34.163Z,53.90
2023-05-19T05:12:00.846Z,53.90
2023-05-19T05:14:27.557Z,53.90
2023-05-19T05:16:54.312Z,55.00
2023-05-19T05:19:21.091Z,53.90
2023-05-19T05:21:47.868Z,54.00
2023-05-19T05:24:14.561Z,53.90
2023-05-19T05:26:41.249Z,54.00
2023-05-19T05:29:07.965Z,53.90
2023-05-19T05:31:34.669Z,53.80
2023-05-19T05:34:01.356Z,53.90
2023-05-19T05:36:28.263Z,54.00
2023-05-19T05:38:54.981Z,54.00
2023-05-19T05:41:21.899Z,53.90
2023-05-19T05:43:48.595Z,53.90
2023-05-19T05:46:15.367Z,54.00
2023-05-19T05:48:42.146Z,53.90
2023-05-19T05:51:09.144Z,53.90
2023-05-19T05:53:35.841Z,53.80
2023-05-19T05:56:02.791Z,53.90
2023-05-19T05:58:29.751Z,53.90
2023-05-19T06:00:56.673Z,53.90
2023-05-19T06:03:23.515Z,53.80
2023-05-19T06:05:50.406Z,53.90
2023-05-19T06:08:17.152Z,54.00
2023-05-19T06:10:45.797Z,53.80
2023-05-19T06:13:14.017Z,53.90
2023-05-19T06:15:40.796Z,53.80
2023-05-19T06:18:07.566Z,53.80
2023-05-19T06:20:34.767Z,53.90
2023-05-19T06:23:01.615Z,53.80
2023-05-19T06:25:28.342Z,53.90
2023-05-19T06:27:55.049Z,53.80
2023-05-19T06:30:21.732Z,53.80
2023-05-19T06:32:48.678Z,53.80
2023-05-19T06:35:15.389Z,53.80
2023-05-19T06:37:42.332Z,53.80
2023-05-19T06:40:09.038Z,53.80
2023-05-19T06:42:35.738Z,54.30
2023-05-19T06:45:02.468Z,53.80
2023-05-19T06:47:29.189Z,53.80
2023-05-19T06:49:56.163Z,53.80
2023-05-19T06:52:23.360Z,53.60
2023-05-19T06:54:50.035Z,53.60
2023-05-19T06:57:16.710Z,53.60
2023-05-19T06:59:43.421Z,53.70
2023-05-19T07:02:10.190Z,53.70
2023-05-19T07:04:36.969Z,53.80
2023-05-19T07:07:03.667Z,53.70
2023-05-19T07:09:30.372Z,53.60
2023-05-19T07:11:57.069Z,53.70
2023-05-19T07:14:23.785Z,53.60
2023-05-19T07:16:50.499Z,53.70
2023-05-19T07:19:17.269Z,53.70
2023-05-19T07:21:44.661Z,53.60
2023-05-19T07:24:11.395Z,53.60
2023-05-19T07:26:38.541Z,53.70
2023-05-19T07:29:05.265Z,53.60
2023-05-19T07:31:31.987Z,53.60
2023-05-19T07:33:58.668Z,53.70
2023-05-19T07:36:25.371Z,53.60
2023-05-19T07:38:52.133Z,53.60
2023-05-19T07:41:18.874Z,53.70
2023-05-19T07:43:45.617Z,53.60
2023-05-19T07:46:12.403Z,53.60
2023-05-19T07:48:39.144Z,53.60
2023-05-19T07:51:05.864Z,53.50
2023-05-19T07:53:32.610Z,53.40
2023-05-19T07:55:59.315Z,53.60
2023-05-19T07:58:26.784Z,53.60
2023-05-19T08:00:53.501Z,53.60
2023-05-19T08:03:20.356Z,53.60
2023-05-19T08:05:47.773Z,53.60
2023-05-19T08:08:14.450Z,53.50
2023-05-19T08:10:41.124Z,54.70
2023-05-19T08:13:07.854Z,53.60
2023-05-19T08:15:34.966Z,53.60
2023-05-19T08:18:01.968Z,53.60
2023-05-19T08:20:28.740Z,53.60
2023-05-19T08:22:55.455Z,53.50
2023-05-19T08:25:22.156Z,53.50
2023-05-19T08:27:49.100Z,53.50
2023-05-19T08:30:15.793Z,53.50
2023-05-19T08:32:42.782Z,53.60
2023-05-19T08:35:09.480Z,53.60
2023-05-19T08:37:36.159Z,53.50
2023-05-19T08:40:02.857Z,53.40
2023-05-19T08:42:29.571Z,53.60
2023-05-19T08:44:56.272Z,53.60
2023-05-19T08:47:22.970Z,53.60
2023-05-19T08:49:49.908Z,53.50
2023-05-19T08:52:16.665Z,53.40
2023-05-19T08:54:43.801Z,53.40
2023-05-19T08:57:10.518Z,53.60
2023-05-19T08:59:37.234Z,53.60
2023-05-19T09:02:03.930Z,53.30
2023-05-19T09:04:30.731Z,53.20
2023-05-19T09:06:57.481Z,53.50
2023-05-19T09:09:24.445Z,53.60
2023-05-19T09:11:51.260Z,53.40
2023-05-19T09:14:18.272Z,53.50
2023-05-19T09:16:45.141Z,53.60
2023-05-19T09:19:11.917Z,53.60
2023-05-19T09:21:38.639Z,53.60
2023-05-19T09:24:06.042Z,53.60
2023-05-19T09:26:32.751Z,53.70
2023-05-19T09:28:59.439Z,53.70
2023-05-19T09:31:26.395Z,53.50
2023-05-19T09:33:53.092Z,53.60
2023-05-19T09:36:19.814Z,53.70
2023-05-19T09:38:46.749Z,53.70
2023-05-19T09:41:13.678Z,53.60
2023-05-19T09:43:40.377Z,53.80
2023-05-19T09:46:08.419Z,53.60
2023-05-19T09:48:35.136Z,53.60
2023-05-19T09:51:02.099Z,53.60
2023-05-19T09:53:29.329Z,53.70
2023-05-19T09:55:56.035Z,53.80
2023-05-19T09:58:22.733Z,53.80
2023-05-19T10:00:49.468Z,53.70
2023-05-19T10:03:16.180Z,53.80
2023-05-19T10:05:42.884Z,53.80
2023-05-19T10:08:09.636Z,53.80
2023-05-19T10:10:36.356Z,53.80
2023-05-19T10:13:03.058Z,53.70
2023-05-19T10:15:29.771Z,53.90
2023-05-19T10:17:56.571Z,53.70
2023-05-19T10:20:23.293Z,53.90
2023-05-19T10:22:49.994Z,53.80
2023-05-19T10:25:16.687Z,53.70
2023-05-19T10:27:43.377Z,53.80
2023-05-19T10:30:12.135Z,53.80
2023-05-19T10:32:39.578Z,53.70
2023-05-19T10:35:06.285Z,53.80
2023-05-19T10:37:32.994Z,53.80
2023-05-19T10:39:59.701Z,53.90
2023-05-19T10:42:26.448Z,54.00
2023-05-19T10:44:53.177Z,53.90
2023-05-19T10:47:20.088Z,53.90
2023-05-19T10:49:47.028Z,53.90
2023-05-19T10:52:13.748Z,54.00
2023-05-19T10:54:40.441Z,54.00
2023-05-19T10:57:07.155Z,54.00
2023-05-19T10:59:33.864Z,54.00
2023-05-19T11:02:00.686Z,54.00
2023-05-19T11:04:27.532Z,54.00
2023-05-19T11:06:54.328Z,54.00
2023-05-19T11:09:31.151Z,54.10
2023-05-19T11:12:04.885Z,53.90
2023-05-19T11:14:31.604Z,54.10
2023-05-19T11:16:58.425Z,53.90
2023-05-19T11:19:25.177Z,54.00
2023-05-19T11:21:52.166Z,53.90
2023-05-19T11:24:18.882Z,53.80
2023-05-19T11:26:45.821Z,53.90
2023-05-19T11:29:12.532Z,54.00
2023-05-19T11:31:39.326Z,54.00
2023-05-19T11:34:06.068Z,53.80
2023-05-19T11:36:32.760Z,54.00
2023-05-19T11:38:59.537Z,54.00
2023-05-19T11:41:26.244Z,54.00
2023-05-19T11:43:53.055Z,54.00
2023-05-19T11:46:19.781Z,54.00
2023-05-19T11:48:46.562Z,53.90
2023-05-19T11:51:13.274Z,54.10
2023-05-19T11:53:39.978Z,54.00
2023-05-19T11:56:06.659Z,53.90
2023-05-19T11:58:33.352Z,54.00
2023-05-19T12:01:00.026Z,53.90
2023-05-19T12:03:26.824Z,54.00
2023-05-19T12:05:53.614Z,54.10
2023-05-19T12:08:20.393Z,54.00
2023-05-19T12:10:47.100Z,55.00
2023-05-19T12:13:13.821Z,54.10
2023-05-19T12:15:40.532Z,54.00
2023-05-19T12:18:07.688Z,54.00
2023-05-19T12:20:34.486Z,54.00
2023-05-19T12:23:01.489Z,54.10
2023-05-19T12:25:28.193Z,54.00
2023-05-19T12:27:56.061Z,54.00
2023-05-19T12:30:23.575Z,54.00
2023-05-19T12:32:50.544Z,54.10
2023-05-19T12:35:17.259Z,54.10
2023-05-19T12:37:44.233Z,54.20
2023-05-19T12:40:10.971Z,54.20
2023-05-19T12:42:37.947Z,54.00
2023-05-19T12:45:04.659Z,54.20
2023-05-19T12:47:31.650Z,54.10
2023-05-19T12:49:58.361Z,54.20
2023-05-19T12:52:25.337Z,54.20
2023-05-19T12:54:52.067Z,54.10
2023-05-19T12:57:19.080Z,54.20
2023-05-19T12:59:46.276Z,54.30
2023-05-19T13:02:13.105Z,54.20
2023-05-19T13:04:39.967Z,54.20
2023-05-19T13:07:06.952Z,54.10
2023-05-19T13:09:33.664Z,54.20
2023-05-19T13:12:00.379Z,54.20
2023-05-19T13:14:27.099Z,54.20
2023-05-19T13:16:53.820Z,54.20
2023-05-19T13:21:50.107Z,54.30
2023-05-19T13:24:16.820Z,54.20
2023-05-19T13:26:43.527Z,54.30
2023-05-19T13:29:10.223Z,55.20
2023-05-19T13:31:37.024Z,54.20
2023-05-19T13:34:03.785Z,54.30
2023-05-19T13:36:30.555Z,54.30
2023-05-19T13:38:57.266Z,54.20
2023-05-19T13:41:23.968Z,54.30
2023-05-19T13:43:50.696Z,54.20
2023-05-19T13:46:18.222Z,54.30
2023-05-19T13:48:45.018Z,54.30
2023-05-19T13:51:11.688Z,54.30
2023-05-19T13:53:38.398Z,54.20
2023-05-19T13:56:05.091Z,54.20
2023-05-19T13:58:31.778Z,54.30
2023-05-19T14:00:58.468Z,54.20
2023-05-19T14:03:25.416Z,54.30
2023-05-19T14:05:52.212Z,54.30
2023-05-19T14:08:18.929Z,54.20
2023-05-19T14:10:45.631Z,54.30
2023-05-19T14:13:31.550Z,54.40
2023-05-19T14:15:59.102Z,54.30
2023-05-19T14:18:25.830Z,54.40
2023-05-19T14:20:52.527Z,54.30
2023-05-19T14:23:19.226Z,54.20
2023-05-19T14:25:45.920Z,54.30
2023-05-19T14:28:12.608Z,54.30
2023-05-19T14:30:39.304Z,54.30
2023-05-19T14:33:06.096Z,54.40
2023-05-19T14:35:33.072Z,54.50
2023-05-19T14:37:59.794Z,54.30
2023-05-19T14:40:26.487Z,54.30
2023-05-19T14:42:53.474Z,54.40
2023-05-19T14:45:20.196Z,54.40
2023-05-19T14:47:47.888Z,54.40
2023-05-19T14:50:14.812Z,54.40
2023-05-19T14:52:41.810Z,54.40
2023-05-19T14:55:08.518Z,54.40
2023-05-19T14:57:35.488Z,54.40
2023-05-19T15:00:02.237Z,54.40
2023-05-19T15:02:29.923Z,54.40
2023-05-19T15:04:56.804Z,54.30
2023-05-19T15:07:23.501Z,54.40
2023-05-19T15:09:50.202Z,54.40
2023-05-19T15:12:16.935Z,54.50
2023-05-19T15:14:43.634Z,54.40
2023-05-19T15:17:10.408Z,54.40
2023-05-19T15:19:37.126Z,54.30
2023-05-19T15:22:03.861Z,54.40
2023-05-19T15:24:30.572Z,54.40
2023-05-19T15:26:57.512Z,54.40
2023-05-19T15:29:24.216Z,54.40
2023-05-19T15:31:51.010Z,54.50
2023-05-19T15:34:17.750Z,54.60
2023-05-19T15:36:44.467Z,54.50
2023-05-19T15:39:11.159Z,54.40
2023-05-19T15:41:37.868Z,54.40
2023-05-19T15:44:04.570Z,54.50
2023-05-19T15:46:31.297Z,54.30
2023-05-19T15:48:58.122Z,54.50
2023-05-19T15:51:24.898Z,54.40
2023-05-19T15:53:51.797Z,54.50
2023-05-19T15:56:18.533Z,54.40
2023-05-19T15:58:45.259Z,54.50
2023-05-19T16:01:12.004Z,54.50
2023-05-19T16:03:38.828Z,54.50
2023-05-19T16:06:05.568Z,54.40
2023-05-19T16:08:32.252Z,54.60
2023-05-19T16:10:58.964Z,54.60
2023-05-19T16:13:25.719Z,54.60
2023-05-19T16:15:52.496Z,54.50
2023-05-19T16:18:19.258Z,54.60
2023-05-19T16:20:45.974Z,54.60
2023-05-19T16:23:12.695Z,54.70
2023-05-19T16:25:39.432Z,54.50
2023-05-19T16:28:06.125Z,55.60
2023-05-19T16:30:33.045Z,54.60
2023-05-19T16:33:00.051Z,54.60
2023-05-19T16:35:26.856Z,54.50
2023-05-19T16:37:53.618Z,54.50
2023-05-19T16:40:20.310Z,54.50
2023-05-19T16:42:47.009Z,54.60
2023-05-19T16:45:13.708Z,54.50
2023-05-19T16:47:40.456Z,54.60
2023-05-19T16:50:07.189Z,54.50
2023-05-19T16:52:33.889Z,54.50
2023-05-19T16:55:00.597Z,54.50
2023-05-19T16:57:27.277Z,54.60
2023-05-19T16:59:54.038Z,54.50
2023-05-19T17:02:20.834Z,54.60
2023-05-19T17:04:47.556Z,54.50
2023-05-19T17:07:14.256Z,54.60
2023-05-19T17:09:40.963Z,54.70
2023-05-19T17:12:07.676Z,54.60
2023-05-19T17:14:34.369Z,54.60
2023-05-19T17:17:01.092Z,54.50
2023-05-19T17:19:27.944Z,54.60
2023-05-19T17:21:54.702Z,54.60
2023-05-19T17:24:21.378Z,54.60
2023-05-19T17:26:48.085Z,54.60
2023-05-19T17:29:14.780Z,54.50
2023-05-19T17:31:41.527Z,54.70
2023-05-19T17:34:08.264Z,54.70
2023-05-19T17:36:34.984Z,54.70
2023-05-19T17:39:01.678Z,54.80
2023-05-19T17:41:28.383Z,54.60
2023-05-19T17:43:55.106Z,54.70
2023-05-19T17:46:21.868Z,54.60
2023-05-19T17:48:48.612Z,55.80
2023-05-19T17:51:15.316Z,54.70
2023-05-19T17:53:42.011Z,54.60
2023-05-19T17:56:08.721Z,54.70
2023-05-19T17:58:35.666Z,54.60
2023-05-19T18:01:02.356Z,54.80
2023-05-19T18:03:29.263Z,54.60
2023-05-19T18:05:56.025Z,54.70
2023-05-19T18:08:22.754Z,54.60
2023-05-19T18:10:49.697Z,54.80
2023-05-19T18:13:16.379Z,54.70
2023-05-19T18:15:43.108Z,55.80
2023-05-19T18:18:09.910Z,54.70
2023-05-19T18:20:36.628Z,54.70
2023-05-19T18:23:03.321Z,54.80
2023-05-19T18:25:30.001Z,54.80
2023-05-19T18:27:56.708Z,54.80
2023-05-19T18:30:23.618Z,54.80
2023-05-19T18:32:50.352Z,54.70
2023-05-19T18:35:17.097Z,54.70
2023-05-19T18:37:43.792Z,54.70
2023-05-19T18:40:10.526Z,54.80
2023-05-19T18:42:37.465Z,54.70
2023-05-19T18:45:04.148Z,54.80
2023-05-19T18:47:30.849Z,54.70
2023-05-19T18:49:57.548Z,54.70
2023-05-19T18:52:24.238Z,54.70
2023-05-19T18:54:50.939Z,54.80
2023-05-19T18:57:17.619Z,54.70
2023-05-19T18:59:44.305Z,54.90
2023-05-19T19:02:11.023Z,54.70
2023-05-19T19:04:37.866Z,54.90
2023-05-19T19:07:04.609Z,54.80
2023-05-19T19:09:31.307Z,54.80
2023-05-19T19:11:58.004Z,55.90
2023-05-19T19:14:24.700Z,54.90
2023-05-19T19:16:51.451Z,54.90
2023-05-19T19:19:18.297Z,54.90
2023-05-19T19:21:45.064Z,54.90
2023-05-19T19:24:11.763Z,54.90
2023-05-19T19:26:38.465Z,54.80
2023-05-19T19:29:05.202Z,54.90
2023-05-19T19:31:31.953Z,55.00
2023-05-19T19:33:58.891Z,54.90
2023-05-19T19:36:25.694Z,54.90
2023-05-19T19:38:52.377Z,55.00
2023-05-19T19:41:19.063Z,56.00
2023-05-19T19:43:45.784Z,54.90
2023-05-19T19:46:12.544Z,55.00
2023-05-19T19:48:39.338Z,54.90
2023-05-19T19:51:06.069Z,55.00
2023-05-19T19:53:32.780Z,54.90
2023-05-19T19:55:59.740Z,55.00
2023-05-19T19:58:26.445Z,55.10
2023-05-19T20:00:53.164Z,55.10
2023-05-19T20:03:19.919Z,55.10
2023-05-19T20:05:46.662Z,55.00
2023-05-19T20:08:14.151Z,55.00
2023-05-19T20:10:42.708Z,54.90
2023-05-19T20:13:09.641Z,54.90
2023-05-19T20:15:36.348Z,55.00
2023-05-19T20:18:03.100Z,55.00
2023-05-19T20:20:29.973Z,55.20
2023-05-19T20:22:56.667Z,55.00
2023-05-19T20:25:23.593Z,54.90
2023-05-19T20:27:50.302Z,55.00
2023-05-19T20:30:17.249Z,55.00
2023-05-19T20:32:44.038Z,55.00
2023-05-19T20:35:10.787Z,55.00
2023-05-19T20:37:37.478Z,55.00
2023-05-19T20:40:04.201Z,55.10
2023-05-19T20:42:31.380Z,55.10
2023-05-19T20:44:58.092Z,55.10
2023-05-19T20:47:24.788Z,55.10
2023-05-19T20:49:51.498Z,55.10
2023-05-19T20:52:18.180Z,55.10
2023-05-19T20:54:44.873Z,55.10
2023-05-19T20:57:11.643Z,55.00
2023-05-19T20:59:38.360Z,55.10
2023-05-19T21:02:05.046Z,55.10
2023-05-19T21:04:31.755Z,55.20
2023-05-19T21:06:58.499Z,56.10
2023-05-19T21:09:25.253Z,55.10
2023-05-19T21:11:51.958Z,55.10
2023-05-19T21:14:18.670Z,55.10
2023-05-19T21:16:45.397Z,55.00
2023-05-19T21:19:12.206Z,55.10
2023-05-19T21:21:39.204Z,55.10
2023-05-19T21:24:05.888Z,55.20
2023-05-19T21:26:32.606Z,55.10
2023-05-19T21:28:59.287Z,55.10
2023-05-19T21:31:25.991Z,55.10
2023-05-19T21:33:52.790Z,55.30
2023-05-19T21:36:19.491Z,55.20
2023-05-19T21:38:46.176Z,55.20
2023-05-19T21:41:12.873Z,55.10
2023-05-19T21:43:39.577Z,55.30
2023-05-19T21:46:06.318Z,55.30
2023-05-19T21:48:33.091Z,55.10
2023-05-19T21:50:59.787Z,55.10
2023-05-19T21:53:26.475Z,55.30
2023-05-19T21:55:53.187Z,55.20
2023-05-19T21:58:19.881Z,55.30
2023-05-19T22:00:46.588Z,55.30
2023-05-19T22:03:13.326Z,55.20
2023-05-19T22:05:40.281Z,55.30
2023-05-19T22:08:06.959Z,55.20
2023-05-19T22:10:33.787Z,55.30
2023-05-19T22:13:00.598Z,55.00
2023-05-19T22:15:27.300Z,55.40
2023-05-19T22:17:54.089Z,55.30
2023-05-19T22:20:21.067Z,55.20
2023-05-19T22:22:47.773Z,55.20
2023-05-19T22:25:14.468Z,55.30
2023-05-19T22:27:41.170Z,55.30
2023-05-19T22:30:07.873Z,55.40
2023-05-19T22:32:34.581Z,55.30
2023-05-19T22:35:01.322Z,55.30
2023-05-19T22:37:28.020Z,55.30
2023-05-19T22:39:54.734Z,55.30
2023-05-19T22:42:21.435Z,55.40
2023-05-19T22:44:48.358Z,55.30
2023-05-19T22:47:15.068Z,55.30
2023-05-19T22:49:41.748Z,55.30
2023-05-19T22:52:08.449Z,55.20
2023-05-19T22:54:35.532Z,55.40
2023-05-19T22:57:02.235Z,55.50
2023-05-19T22:59:28.950Z,55.40
2023-05-19T23:01:55.651Z,55.30
2023-05-19T23:04:22.418Z,55.40
2023-05-19T23:06:49.425Z,55.30
2023-05-19T23:09:16.136Z,55.30
2023-05-19T23:11:42.806Z,55.40
2023-05-19T23:14:09.724Z,55.30
2023-05-19T23:16:36.497Z,55.30
2023-05-19T23:19:03.287Z,55.40
2023-05-19T23:21:30.035Z,55.40
2023-05-19T23:23:56.730Z,55.40
2023-05-19T23:26:23.453Z,55.40
2023-05-19T23:28:50.153Z,55.30
2023-05-19T23:31:16.954Z,55.40
2023-05-19T23:33:43.681Z,55.30
2023-05-19T23:36:10.400Z,55.40
2023-05-19T23:38:37.213Z,55.50
2023-05-19T23:41:03.915Z,55.50
2023-05-19T23:43:30.604Z,55.40
2023-05-19T23:45:57.339Z,55.40
2023-05-19T23:48:24.047Z,55.50
2023-05-19T23:50:50.764Z,55.40
2023-05-19T23:53:17.463Z,55.40
2023-05-19T23:55:44.168Z,55.50
2023-05-19T23:58:10.891Z,55.30
